Terminal Aerodrome Forecast
Issued by NWS Melbourne, FL

Home | Current Version | Previous Version | Text Only | Print | Product List | Glossary On
Versions: 1 2 3 4 5 6 7 8 9 10 11 12
000
FTUS42 KMLB 231121
TAFVRB
TAF
KVRB 231121Z 2312/2412 10010KT P6SM VCSH FEW025 BKN040
     FM231500 10012G18KT P6SM FEW030 SCT040
     FM240000 10008KT P6SM FEW040=

USA.gov is the U.S. government's official web portal to all federal, state and local government web resources and services.